Time;durP1;ratioP1;P1;durP2;ratioP2;P2;SDS_P1;SDS_P2;PMS_P1;PMS_P2;Temp;Humidity;BMP_temperature;BMP_pressure;BME280_temperature;BME280_humidity;BME280_pressure;Samples;Min_cycle;Max_cycle;Signal;HPM_P1;HPM_P2
2023/09/28 00:01:17;;;;;;;0.00;0.00;;;;;;;28.26;46.27;101297.19;5058834;28;20492;-73
2023/09/28 00:03:43;;;;;;;0.00;0.00;;;;;;;28.08;47.18;101296.44;5059169;28;20036;-73
2023/09/28 00:06:08;;;;;;;0.00;0.00;;;;;;;28.12;46.33;101299.34;5059074;28;20020;-72
2023/09/28 00:08:33;;;;;;;0.00;0.00;;;;;;;28.33;46.25;101303.81;5059808;28;20492;-73
2023/09/28 00:10:59;;;;;;;0.00;0.00;;;;;;;28.28;46.42;101300.44;5064997;28;20033;-73
2023/09/28 00:13:24;;;;;;;0.00;0.00;;;;;;;28.31;46.24;101303.34;5070997;28;20036;-72
2023/09/28 00:15:50;;;;;;;0.00;0.00;;;;;;;28.05;47.35;101302.63;5071259;28;20029;-72
2023/09/28 00:18:15;;;;;;;0.00;0.00;;;;;;;28.07;46.69;101305.88;5070769;28;20028;-72
2023/09/28 00:20:40;;;;;;;0.00;0.00;;;;;;;28.25;46.67;101312.94;5053491;28;20023;-73
2023/09/28 00:23:06;;;;;;;0.00;0.00;;;;;;;27.91;47.90;101309.47;5068836;28;20087;-72
2023/09/28 00:25:31;;;;;;;0.00;0.00;;;;;;;26.50;51.51;101314.78;5067073;28;20138;-73
2023/09/28 00:27:57;;;;;;;0.00;0.00;;;;;;;27.65;48.72;101315.06;5044144;28;20037;-73
2023/09/28 00:30:25;;;;;;;0.00;0.00;;;;;;;27.54;48.94;101317.34;5070925;28;20545;-74
2023/09/28 00:32:53;;;;;;;0.00;0.00;;;;;;;27.62;48.71;101312.94;5071798;28;20029;-73
2023/09/28 00:35:19;;;;;;;0.00;0.00;;;;;;;27.38;49.29;101312.69;5070920;28;20032;-73
2023/09/28 00:37:45;;;;;;;0.00;0.00;;;;;;;27.39;49.20;101309.59;5071058;28;20032;-72
2023/09/28 00:40:21;;;;;;;0.00;0.00;;;;;;;27.42;49.32;101308.91;5061456;28;20039;-73
2023/09/28 00:42:50;;;;;;;0.00;0.00;;;;;;;27.62;48.74;101312.94;5051303;28;20029;-73
2023/09/28 00:45:16;;;;;;;0.00;0.00;;;;;;;27.55;48.65;101321.75;5051121;28;20064;-72
2023/09/28 00:47:45;;;;;;;0.00;0.00;;;;;;;27.66;48.03;101316.69;5051292;28;20060;-72
2023/09/28 00:50:14;;;;;;;0.00;0.00;;;;;;;27.54;48.33;101320.13;5042937;28;20064;-74
2023/09/28 00:52:46;;;;;;;0.00;0.00;;;;;;;27.69;47.83;101305.78;5071020;28;20036;-72
2023/09/28 00:55:15;;;;;;;0.00;0.00;;;;;;;27.65;47.74;101302.09;5070888;28;20036;-73
2023/09/28 00:57:42;;;;;;;0.00;0.00;;;;;;;27.51;48.14;101315.25;5070640;28;20091;-73
2023/09/28 01:00:31;;;;;;;0.00;0.00;;;;;;;27.37;48.10;101316.56;5070893;28;20025;-72
2023/09/28 01:02:58;;;;;;;0.00;0.00;;;;;;;27.37;49.05;101319.31;5070304;28;20564;-72
2023/09/28 01:05:26;;;;;;;0.00;0.00;;;;;;;27.54;48.44;101313.78;5070636;28;20059;-72
2023/09/28 01:07:52;;;;;;;0.00;0.00;;;;;;;27.61;47.50;101319.63;5070499;28;20024;-72
2023/09/28 01:10:24;;;;;;;0.00;0.00;;;;;;;27.37;48.34;101322.06;5070478;28;20495;-74
2023/09/28 01:12:50;;;;;;;0.00;0.00;;;;;;;27.31;48.19;101318.66;5070416;28;20044;-74
2023/09/28 01:15:16;;;;;;;0.00;0.00;;;;;;;27.23;48.57;101318.63;5070113;28;20029;-73
2023/09/28 01:17:43;;;;;;;0.00;0.00;;;;;;;27.24;48.56;101325.78;5070706;28;20063;-73
2023/09/28 01:20:22;;;;;;;0.00;0.00;;;;;;;27.34;48.06;101320.78;5070318;28;20500;-73
2023/09/28 01:22:50;;;;;;;0.00;0.00;;;;;;;27.03;48.94;101322.06;5068763;28;20050;-72
2023/09/28 01:25:21;;;;;;;0.00;0.00;;;;;;;26.92;49.15;101327.88;5050112;28;20403;-72
2023/09/28 01:27:47;;;;;;;0.00;0.00;;;;;;;26.95;48.92;101337.44;5050252;28;20037;-73
2023/09/28 01:30:13;;;;;;;0.00;0.00;;;;;;;26.65;49.56;101338.34;5050540;28;20025;-73
2023/09/28 01:32:39;;;;;;;0.00;0.00;;;;;;;26.63;49.92;101333.13;5050655;28;20036;-72
2023/09/28 01:35:06;;;;;;;0.00;0.00;;;;;;;26.95;48.94;101327.22;5050340;28;20112;-72
2023/09/28 01:37:38;;;;;;;0.10;0.10;;;;;;;27.07;48.98;101310.03;5050828;28;20120;-74
2023/09/28 01:40:04;;;;;;;0.00;0.00;;;;;;;27.66;46.88;101313.91;5061530;28;20388;-72
2023/09/28 01:42:29;;;;;;;0.10;0.10;;;;;;;27.63;46.67;101323.69;5049944;28;20029;-74
2023/09/28 01:44:55;;;;;;;0.00;0.00;;;;;;;27.62;46.67;101329.53;5048927;28;20044;-73
2023/09/28 01:47:20;;;;;;;0.00;0.00;;;;;;;27.59;46.35;101325.47;5067564;28;20032;-72
2023/09/28 01:49:45;;;;;;;0.00;0.00;;;;;;;26.93;48.07;101325.91;5069859;28;20044;-73
2023/09/28 01:52:11;;;;;;;0.00;0.00;;;;;;;26.64;49.41;101323.75;5069886;28;20395;-73
2023/09/28 01:54:36;;;;;;;0.00;0.00;;;;;;;26.91;48.33;101326.25;5070001;28;20033;-72
2023/09/28 01:57:01;;;;;;;0.00;0.00;;;;;;;27.27;47.09;101327.91;5070004;28;20453;-71
2023/09/28 01:59:27;;;;;;;0.05;0.05;;;;;;;27.21;47.72;101332.78;5070541;28;20025;-72
2023/09/28 02:01:52;;;;;;;0.10;0.10;;;;;;;27.36;47.05;101331.50;5070077;28;20044;-73
2023/09/28 02:04:18;;;;;;;0.00;0.00;;;;;;;27.39;46.99;101326.16;5069780;28;20037;-73
2023/09/28 02:06:43;;;;;;;0.10;0.10;;;;;;;27.38;46.82;101332.78;5069778;28;20443;-72
2023/09/28 02:09:10;;;;;;;0.00;0.00;;;;;;;27.31;46.86;101343.50;5070102;28;20029;-73
2023/09/28 02:11:43;;;;;;;0.05;0.05;;;;;;;27.37;46.33;101345.00;5070176;28;20383;-73
2023/09/28 02:14:09;;;;;;;0.03;0.03;;;;;;;27.28;47.33;101335.06;5069616;28;20113;-72
2023/09/28 02:16:35;;;;;;;0.00;0.00;;;;;;;27.26;47.34;101338.13;5069887;28;20039;-73
2023/09/28 02:19:00;;;;;;;0.10;0.10;;;;;;;27.30;46.77;101333.56;5069659;28;20573;-72
2023/09/28 02:21:26;;;;;;;0.00;0.00;;;;;;;27.18;47.35;101338.94;5069620;28;20036;-72
2023/09/28 02:23:51;;;;;;;0.00;0.00;;;;;;;26.88;48.58;101342.63;5060085;28;20397;-73
2023/09/28 02:26:17;;;;;;;0.05;0.05;;;;;;;26.58;49.57;101352.59;5049843;28;20362;-73
2023/09/28 02:28:42;;;;;;;0.00;0.00;;;;;;;26.53;49.48;101350.00;5049720;28;20041;-73
2023/09/28 02:31:07;;;;;;;0.00;0.00;;;;;;;26.39;49.59;101354.81;5049826;28;20671;-73
2023/09/28 02:33:34;;;;;;;0.00;0.00;;;;;;;26.53;49.42;101358.25;5049697;28;20099;-72
2023/09/28 02:35:59;;;;;;;0.00;0.00;;;;;;;26.63;49.43;101366.22;5051147;28;20064;-72
2023/09/28 02:38:24;;;;;;;0.00;0.00;;;;;;;26.32;51.07;101362.69;5053759;28;20490;-73
2023/09/28 02:40:50;;;;;;;0.00;0.00;;;;;;;26.17;51.09;101370.56;5053209;28;20032;-73
2023/09/28 02:43:15;;;;;;;0.10;0.10;;;;;;;26.27;50.88;101368.38;5068307;28;20044;-73
2023/09/28 02:45:42;;;;;;;0.00;0.00;;;;;;;26.01;51.85;101375.63;5068863;28;20548;-73
2023/09/28 02:48:08;;;;;;;0.08;0.08;;;;;;;26.70;50.07;101365.75;5053487;28;20109;-62
2023/09/28 02:50:34;;;;;;;0.00;0.00;;;;;;;27.44;48.06;101366.59;5053795;28;20021;-61
2023/09/28 02:52:59;;;;;;;0.10;0.10;;;;;;;27.13;48.21;101374.16;5052942;28;20149;-64
2023/09/28 02:55:25;;;;;;;0.00;0.00;;;;;;;26.83;49.44;101370.34;5053166;28;20033;-63
2023/09/28 02:57:50;;;;;;;0.00;0.00;;;;;;;26.46;50.33;101373.63;5052997;28;20500;-62
2023/09/28 03:02:47;;;;;;;0.10;0.10;;;;;;;26.42;50.88;101367.94;5053312;28;20029;-63
2023/09/28 03:05:12;;;;;;;0.00;0.00;;;;;;;26.52;50.15;101366.81;5052822;28;20033;-62
2023/09/28 03:07:39;;;;;;;0.10;0.10;;;;;;;26.42;50.89;101370.69;5052779;28;20033;-63
2023/09/28 03:10:06;;;;;;;0.00;0.00;;;;;;;26.56;50.01;101371.41;5072284;28;20071;-62
2023/09/28 03:12:32;;;;;;;0.00;0.00;;;;;;;26.45;50.38;101369.25;5072919;28;20029;-63
2023/09/28 03:14:57;;;;;;;0.10;0.10;;;;;;;26.44;50.15;101373.94;5055973;28;20025;-63
2023/09/28 03:17:22;;;;;;;0.08;0.08;;;;;;;26.48;50.08;101376.88;5052390;28;20037;-63
2023/09/28 03:19:48;;;;;;;0.00;0.00;;;;;;;26.38;50.22;101374.41;5052412;28;20508;-63
2023/09/28 03:22:13;;;;;;;0.00;0.00;;;;;;;26.25;51.00;101384.41;5035777;28;20063;-64
2023/09/28 03:24:39;;;;;;;0.00;0.00;;;;;;;26.35;50.46;101386.88;5085547;28;20052;-64
2023/09/28 03:27:08;;;;;;;0.10;0.10;;;;;;;26.35;50.98;101392.41;5092603;28;20085;-64
2023/09/28 03:29:33;;;;;;;0.10;0.10;;;;;;;26.19;50.51;101393.09;5093365;28;20483;-62
2023/09/28 03:31:58;;;;;;;0.00;0.00;;;;;;;26.17;51.76;101395.38;5092472;28;20117;-63
2023/09/28 03:34:25;;;;;;;0.10;0.10;;;;;;;26.35;50.74;101397.09;5092504;28;20063;-61
2023/09/28 03:36:50;;;;;;;0.10;0.10;;;;;;;26.25;51.19;101400.94;5092703;28;20059;-63
2023/09/28 03:39:16;;;;;;;0.03;0.03;;;;;;;26.22;50.96;101398.00;5079084;28;20036;-64
2023/09/28 03:41:41;;;;;;;0.00;0.00;;;;;;;26.10;51.48;101398.59;5071550;28;20519;-63
2023/09/28 03:44:07;;;;;;;0.00;0.00;;;;;;;26.14;51.36;101410.59;5072201;28;20024;-62
2023/09/28 03:46:32;;;;;;;0.10;0.10;;;;;;;26.08;51.50;101411.88;5060008;28;20086;-63
2023/09/28 03:48:58;;;;;;;0.10;0.10;;;;;;;26.06;51.08;101425.13;5051754;28;20029;-62
2023/09/28 03:51:23;;;;;;;0.03;0.03;;;;;;;26.02;51.39;101422.13;5051946;28;20041;-63
2023/09/28 03:53:48;;;;;;;0.00;0.00;;;;;;;25.94;51.66;101416.59;5052491;28;20028;-63
2023/09/28 03:56:14;;;;;;;0.03;0.03;;;;;;;25.98;51.92;101412.09;5051824;28;20186;-63
2023/09/28 03:58:39;;;;;;;0.03;0.03;;;;;;;25.85;51.66;101418.47;5052003;28;20405;-63
2023/09/28 04:01:07;;;;;;;0.00;0.00;;;;;;;25.86;51.73;101431.13;5051348;28;20028;-62
2023/09/28 04:03:34;;;;;;;0.00;0.00;;;;;;;25.80;51.78;101430.44;5059134;28;20052;-63
2023/09/28 04:06:00;;;;;;;0.03;0.03;;;;;;;25.68;52.48;101429.34;5041713;28;20362;-63
2023/09/28 04:08:25;;;;;;;0.10;0.10;;;;;;;25.36;53.31;101435.81;5036053;28;20032;-63
2023/09/28 04:10:51;;;;;;;0.00;0.00;;;;;;;25.69;52.99;101433.75;5044754;28;20056;-64
2023/09/28 04:13:17;;;;;;;0.10;0.10;;;;;;;25.72;52.39;101431.19;5050403;28;20043;-62
2023/09/28 04:15:42;;;;;;;0.00;0.00;;;;;;;25.65;53.00;101430.78;5044483;28;20041;-62
2023/09/28 04:18:08;;;;;;;0.10;0.10;;;;;;;25.73;53.05;101443.81;5030876;28;20041;-61
2023/09/28 04:20:33;;;;;;;0.00;0.00;;;;;;;24.98;55.22;101442.72;5050662;28;20428;-63
2023/09/28 04:22:59;;;;;;;0.10;0.10;;;;;;;25.48;53.96;101440.81;5067281;28;20124;-64
2023/09/28 04:25:26;;;;;;;0.10;0.10;;;;;;;25.68;52.89;101452.19;5059665;28;20044;-64
2023/09/28 04:27:52;;;;;;;0.05;0.05;;;;;;;25.10;54.96;101451.28;5050706;28;20094;-64
2023/09/28 04:30:17;;;;;;;0.10;0.10;;;;;;;24.90;55.34;101449.72;5050664;28;20021;-62
2023/09/28 04:32:43;;;;;;;0.10;0.10;;;;;;;25.46;54.13;101449.41;5050401;28;20025;-61
2023/09/28 04:35:10;;;;;;;0.10;0.10;;;;;;;25.49;53.88;101453.47;5049691;28;20055;-64
2023/09/28 04:37:37;;;;;;;0.10;0.10;;;;;;;25.12;54.68;101460.84;5063471;28;20040;-65
2023/09/28 04:40:02;;;;;;;0.10;0.10;;;;;;;25.39;53.75;101459.19;5041515;28;20033;-63
2023/09/28 04:42:28;;;;;;;0.10;0.10;;;;;;;25.48;53.55;101465.59;5043822;28;20150;-64
2023/09/28 04:44:53;;;;;;;0.10;0.10;;;;;;;24.96;55.35;101462.25;5050111;28;20025;-64
2023/09/28 04:47:18;;;;;;;0.10;0.10;;;;;;;25.44;53.45;101467.34;5050424;28;20037;-64
2023/09/28 04:49:45;;;;;;;0.10;0.10;;;;;;;25.40;53.87;101464.38;5056920;28;20040;-63
2023/09/28 04:52:11;;;;;;;0.00;0.00;;;;;;;25.25;54.67;101473.78;5052566;28;20093;-64
2023/09/28 04:54:37;;;;;;;0.10;0.10;;;;;;;25.07;55.32;101455.44;5046957;28;20509;-63
2023/09/28 04:57:03;;;;;;;0.10;0.10;;;;;;;25.31;54.64;101460.72;5069989;28;20450;-64
2023/09/28 04:59:29;;;;;;;0.10;0.10;;;;;;;25.18;54.96;101469.78;5069695;28;20017;-63
2023/09/28 05:01:55;;;;;;;0.00;0.00;;;;;;;25.39;54.23;101460.00;5069764;28;20040;-63
2023/09/28 05:04:20;;;;;;;0.10;0.10;;;;;;;25.43;53.81;101465.72;5069856;28;20847;-63
2023/09/28 05:06:46;;;;;;;0.10;0.10;;;;;;;25.35;53.48;101471.91;5066595;28;20040;-62
2023/09/28 05:09:13;;;;;;;0.05;0.05;;;;;;;25.17;54.25;101469.00;5068959;28;20028;-63
2023/09/28 05:11:39;;;;;;;0.10;0.10;;;;;;;25.17;54.18;101465.41;5051287;28;20123;-63
2023/09/28 05:14:04;;;;;;;0.00;0.00;;;;;;;25.22;54.19;101471.63;5050514;28;20116;-64
2023/09/28 05:16:29;;;;;;;0.00;0.00;;;;;;;25.20;53.73;101487.63;5050622;28;20037;-64
2023/09/28 05:18:55;;;;;;;0.10;0.10;;;;;;;25.17;53.27;101491.00;5050645;28;20101;-64
2023/09/28 05:21:21;;;;;;;0.10;0.10;;;;;;;25.11;54.19;101492.22;5048581;28;20044;-64
2023/09/28 05:23:46;;;;;;;0.00;0.00;;;;;;;25.02;54.56;101504.25;5050889;28;20098;-62
2023/09/28 05:26:11;;;;;;;0.10;0.10;;;;;;;25.09;53.85;101505.47;5050581;28;20033;-62
2023/09/28 05:28:37;;;;;;;0.10;0.10;;;;;;;24.95;54.79;101515.66;5050292;28;20063;-62
2023/09/28 05:31:03;;;;;;;0.13;0.13;;;;;;;24.50;56.01;101527.44;5050200;28;20040;-64
2023/09/28 05:33:29;;;;;;;0.10;0.10;;;;;;;24.86;55.39;101528.47;5050106;28;20048;-63
2023/09/28 05:35:54;;;;;;;0.10;0.10;;;;;;;24.85;55.27;101526.00;5050124;28;20483;-63
2023/09/28 05:38:20;;;;;;;0.00;0.00;;;;;;;24.94;54.81;101532.47;5048725;28;20043;-63
2023/09/28 05:40:46;;;;;;;0.10;0.10;;;;;;;24.05;58.51;101536.44;5049455;28;20048;-64
2023/09/28 05:43:11;;;;;;;0.10;0.10;;;;;;;24.52;56.94;101536.22;5059797;28;20044;-63
2023/09/28 05:45:38;;;;;;;0.10;0.10;;;;;;;24.81;56.39;101536.00;5063016;28;20033;-62
2023/09/28 05:48:03;;;;;;;0.10;0.10;;;;;;;24.76;56.32;101527.84;5033930;28;20594;-63
2023/09/28 05:50:29;;;;;;;0.00;0.00;;;;;;;24.14;58.90;101532.72;5039388;28;20045;-64
2023/09/28 05:52:56;;;;;;;0.10;0.10;;;;;;;24.46;57.92;101533.84;5055227;28;20021;-63
2023/09/28 05:55:22;;;;;;;0.00;0.00;;;;;;;24.44;58.07;101536.91;5046255;28;20087;-62
2023/09/28 05:57:48;;;;;;;0.10;0.10;;;;;;;24.57;57.42;101549.06;5040771;28;20033;-62
2023/09/28 06:00:15;;;;;;;0.10;0.10;;;;;;;24.29;58.21;101545.41;5049412;28;20075;-62
2023/09/28 06:02:41;;;;;;;0.00;0.00;;;;;;;23.87;60.50;101553.69;5049408;28;20035;-62
2023/09/28 06:05:07;;;;;;;0.05;0.05;;;;;;;24.39;58.83;101557.03;5066897;28;20032;-63
2023/09/28 06:07:33;;;;;;;0.00;0.00;;;;;;;24.79;56.96;101557.47;5069797;28;20055;-62
2023/09/28 06:09:58;;;;;;;0.10;0.10;;;;;;;25.11;55.83;101563.75;5071131;28;20036;-63
2023/09/28 06:12:23;;;;;;;0.10;0.10;;;;;;;25.52;54.27;101554.69;5073962;28;20033;-62
2023/09/28 06:14:49;;;;;;;0.10;0.10;;;;;;;25.57;54.30;101565.59;5074197;28;20476;-63
2023/09/28 06:17:14;;;;;;;0.10;0.10;;;;;;;25.70;53.24;101562.00;5054654;28;20033;-64
2023/09/28 06:19:40;;;;;;;0.10;0.10;;;;;;;25.73;53.38;101569.69;5059943;28;20040;-62
2023/09/28 06:22:09;;;;;;;0.10;0.10;;;;;;;25.49;53.80;101574.59;5073620;28;20072;-62
2023/09/28 06:24:36;;;;;;;0.10;0.10;;;;;;;25.60;53.80;101571.31;5073326;28;20443;-63
2023/09/28 06:27:01;;;;;;;0.00;0.00;;;;;;;25.73;53.12;101575.19;5073152;28;20031;-63
2023/09/28 06:29:26;;;;;;;0.00;0.00;;;;;;;24.49;57.82;101589.00;5073795;28;20024;-62
2023/09/28 06:31:52;;;;;;;0.10;0.10;;;;;;;24.48;57.84;101584.66;5073517;28;20380;-62
2023/09/28 06:34:17;;;;;;;0.00;0.00;;;;;;;24.19;59.19;101578.53;5073218;28;20091;-61
2023/09/28 06:36:42;;;;;;;0.00;0.00;;;;;;;24.53;57.70;101570.00;5073022;28;20082;-63
2023/09/28 06:39:08;;;;;;;0.00;0.00;;;;;;;25.04;56.61;101571.56;5060778;28;20032;-64
2023/09/28 06:41:34;;;;;;;0.10;0.10;;;;;;;24.11;58.76;101574.53;5053783;28;20036;-64
2023/09/28 06:43:59;;;;;;;0.10;0.10;;;;;;;24.22;58.52;101575.16;5053012;28;20029;-62
2023/09/28 06:46:24;;;;;;;0.10;0.10;;;;;;;25.01;55.98;101571.38;5053059;28;20045;-61
2023/09/28 06:48:50;;;;;;;0.00;0.00;;;;;;;24.85;55.55;101575.50;5053024;28;20338;-62
2023/09/28 06:51:16;;;;;;;0.10;0.10;;;;;;;24.65;56.10;101579.41;5053100;28;20110;-64
2023/09/28 06:53:41;;;;;;;0.05;0.05;;;;;;;24.69;56.64;101579.59;5061411;28;20035;-62
2023/09/28 06:56:07;;;;;;;0.10;0.10;;;;;;;24.75;56.48;101595.75;5072700;28;20135;-62
2023/09/28 06:58:32;;;;;;;0.10;0.10;;;;;;;24.52;57.62;101585.69;5072644;28;20032;-62
2023/09/28 07:00:58;;;;;;;0.00;0.00;;;;;;;24.91;55.81;101583.38;5072919;28;20492;-64
2023/09/28 07:03:24;;;;;;;0.10;0.10;;;;;;;24.66;56.73;101594.78;5072467;28;20040;-62
2023/09/28 07:05:49;;;;;;;0.00;0.00;;;;;;;24.59;56.30;101597.09;5073534;28;20025;-63
2023/09/28 07:08:15;;;;;;;0.05;0.05;;;;;;;24.68;56.78;101594.47;5072685;28;20032;-62
2023/09/28 07:10:40;;;;;;;0.10;0.10;;;;;;;25.24;54.86;101595.94;5072413;28;20033;-62
2023/09/28 07:13:06;;;;;;;0.10;0.10;;;;;;;24.44;56.78;101608.34;5072641;28;20036;-61
2023/09/28 07:15:33;;;;;;;0.00;0.00;;;;;;;24.42;57.08;101613.31;5068195;28;20544;-63
2023/09/28 07:17:59;;;;;;;0.00;0.00;;;;;;;24.23;58.13;101618.00;5052893;28;20087;-63
2023/09/28 07:20:26;;;;;;;0.00;0.00;;;;;;;24.37;58.07;101622.44;5052697;28;20041;-61
2023/09/28 07:22:51;;;;;;;0.10;0.10;;;;;;;24.11;58.64;101631.38;5051660;28;20060;-62
2023/09/28 07:25:17;;;;;;;0.10;0.10;;;;;;;24.01;59.05;101635.03;5052434;28;20516;-62
2023/09/28 07:27:44;;;;;;;0.10;0.10;;;;;;;23.81;58.61;101640.78;5052403;28;20401;-61
2023/09/28 07:30:11;;;;;;;0.00;0.00;;;;;;;24.20;57.76;101633.16;5052594;28;20029;-62
2023/09/28 07:32:39;;;;;;;0.10;0.10;;;;;;;24.27;57.48;101646.53;5053057;28;20419;-63
2023/09/28 07:35:05;;;;;;;0.00;0.00;;;;;;;24.86;55.37;101635.72;5052070;28;20516;-62
2023/09/28 07:37:32;;;;;;;0.10;0.10;;;;;;;24.20;57.50;101644.13;5052348;28;20158;-62
2023/09/28 07:39:57;;;;;;;0.00;0.00;;;;;;;24.74;55.74;101657.38;5063259;28;20040;-63
2023/09/28 07:42:26;;;;;;;0.10;0.10;;;;;;;23.95;58.24;101652.69;5052417;28;20646;-61
2023/09/28 07:44:51;;;;;;;0.10;0.10;;;;;;;24.01;57.27;101653.44;5052784;28;20044;-62
2023/09/28 07:47:19;;;;;;;0.10;0.10;;;;;;;23.82;58.15;101650.66;5052151;28;20048;-62
2023/09/28 07:49:45;;;;;;;0.00;0.00;;;;;;;24.95;55.50;101646.84;5058443;28;20055;-63
2023/09/28 07:52:10;;;;;;;0.00;0.00;;;;;;;25.48;53.31;101658.25;5072154;28;20420;-61
2023/09/28 07:54:36;;;;;;;0.00;0.00;;;;;;;25.36;53.89;101655.97;5071862;28;20036;-62
2023/09/28 07:57:04;;;;;;;0.03;0.03;;;;;;;25.03;54.13;101651.66;5072427;28;20727;-62
2023/09/28 07:59:31;;;;;;;0.00;0.00;;;;;;;24.65;54.96;101653.63;5054112;28;20060;-61
2023/09/28 08:01:57;;;;;;;0.00;0.00;;;;;;;25.45;52.85;101653.38;5072283;28;20047;-64
2023/09/28 08:04:22;;;;;;;0.00;0.00;;;;;;;25.29;53.13;101669.34;5071871;28;20400;-61
2023/09/28 08:06:48;;;;;;;0.00;0.00;;;;;;;24.87;54.10;101681.34;5071728;28;20044;-63
2023/09/28 08:09:13;;;;;;;0.03;0.03;;;;;;;24.80;54.55;101678.16;5071891;28;20029;-62
2023/09/28 08:11:40;;;;;;;0.00;0.00;;;;;;;24.97;53.99;101685.84;5072554;28;20043;-63
2023/09/28 08:14:06;;;;;;;0.00;0.00;;;;;;;25.23;53.30;101689.81;5071672;28;20029;-62
2023/09/28 08:16:31;;;;;;;0.00;0.00;;;;;;;26.20;50.99;101687.63;5069970;28;20063;-63
2023/09/28 08:18:56;;;;;;;0.00;0.00;;;;;;;25.47;52.43;101693.25;5071553;28;20048;-62
2023/09/28 08:21:24;;;;;;;0.10;0.10;;;;;;;24.87;53.85;101695.09;5071431;28;20041;-63
2023/09/28 08:23:50;;;;;;;0.00;0.00;;;;;;;25.63;51.88;101702.84;5071680;28;20144;-62
2023/09/28 08:26:15;;;;;;;0.00;0.00;;;;;;;26.16;50.06;101699.59;5071352;28;20032;-63
2023/09/28 08:28:41;;;;;;;0.00;0.00;;;;;;;25.78;50.70;101686.03;5071463;28;20380;-62
2023/09/28 08:31:06;;;;;;;0.00;0.00;;;;;;;26.90;48.48;101671.41;5071295;28;20048;-61
2023/09/28 08:33:32;;;;;;;0.00;0.00;;;;;;;26.73;48.55;101676.81;5071262;28;20040;-63
2023/09/28 08:35:57;;;;;;;0.00;0.00;;;;;;;25.96;49.67;101692.56;5071559;28;20525;-62
2023/09/28 08:38:22;;;;;;;0.00;0.00;;;;;;;26.48;48.02;101693.91;5070988;28;20504;-63
2023/09/28 08:40:58;;;;;;;0.00;0.00;;;;;;;26.33;48.08;101699.75;5056536;28;20036;-63
2023/09/28 08:43:25;;;;;;;0.00;0.00;;;;;;;26.19;48.90;101710.00;5051206;28;20580;-63
2023/09/28 08:45:51;;;;;;;0.00;0.00;;;;;;;26.32;47.87;101704.47;5052359;28;20319;-62
2023/09/28 08:48:21;;;;;;;0.00;0.00;;;;;;;26.05;48.24;101701.72;5070627;28;20525;-63
2023/09/28 08:50:50;;;;;;;0.00;0.00;;;;;;;26.83;46.73;101693.91;5052745;28;20032;-63
2023/09/28 08:53:18;;;;;;;0.00;0.00;;;;;;;27.17;45.56;101700.78;5070830;28;20029;-61
2023/09/28 08:55:45;;;;;;;0.00;0.00;;;;;;;25.93;47.97;101702.25;5070824;28;20171;-61
2023/09/28 08:58:12;;;;;;;0.00;0.00;;;;;;;26.18;47.59;101708.38;5070651;28;20044;-62
2023/09/28 09:00:38;;;;;;;0.00;0.00;;;;;;;26.55;47.42;101730.97;5070928;28;20032;-61
2023/09/28 09:03:06;;;;;;;0.00;0.00;;;;;;;26.52;47.24;101742.59;5070701;28;20093;-63
2023/09/28 09:05:32;;;;;;;0.00;0.00;;;;;;;27.67;44.48;101740.91;5071012;28;20025;-61
2023/09/28 09:08:01;;;;;;;0.00;0.00;;;;;;;27.01;46.17;101738.19;5070677;28;20043;-63
2023/09/28 09:10:28;;;;;;;0.00;0.00;;;;;;;26.69;47.57;101741.97;5070280;28;20498;-62
2023/09/28 09:12:53;;;;;;;0.00;0.00;;;;;;;26.41;48.58;101743.13;5070454;28;20116;-62
2023/09/28 09:15:20;;;;;;;0.00;0.00;;;;;;;26.25;48.69;101730.81;5068884;28;20037;-62
2023/09/28 09:17:45;;;;;;;0.00;0.00;;;;;;;26.76;47.47;101736.84;5070995;28;20170;-63
2023/09/28 09:20:10;;;;;;;0.00;0.00;;;;;;;27.05;46.49;101734.47;5070217;28;20048;-62
2023/09/28 09:22:36;;;;;;;0.00;0.00;;;;;;;27.34;45.78;101731.31;5070364;28;20491;-62
2023/09/28 09:25:02;;;;;;;0.00;0.00;;;;;;;26.42;48.24;101728.22;5070424;28;20043;-62
2023/09/28 09:27:29;;;;;;;0.00;0.00;;;;;;;26.52;47.32;101720.56;5070327;28;20060;-62
2023/09/28 09:30:03;;;;;;;0.00;0.00;;;;;;;26.01;48.66;101728.25;5070780;28;20066;-62
2023/09/28 09:32:28;;;;;;;0.00;0.00;;;;;;;26.32;46.71;101729.25;5070362;28;20131;-62
2023/09/28 09:34:54;;;;;;;0.00;0.00;;;;;;;27.47;44.01;101731.22;5070041;28;20123;-63
2023/09/28 09:37:20;;;;;;;0.00;0.00;;;;;;;27.00;45.09;101733.78;5070067;28;20044;-62
2023/09/28 09:39:45;;;;;;;0.00;0.00;;;;;;;25.48;48.60;101738.91;5064101;28;20033;-63
2023/09/28 09:42:11;;;;;;;0.00;0.00;;;;;;;26.45;46.15;101757.94;5056050;28;20024;-62
2023/09/28 09:44:37;;;;;;;0.00;0.00;;;;;;;26.43;46.92;101763.78;5065094;28;20020;-61
2023/09/28 09:47:03;;;;;;;0.00;0.00;;;;;;;28.11;42.24;101760.13;5053314;28;20132;-63
2023/09/28 09:49:29;;;;;;;0.00;0.00;;;;;;;27.05;45.24;101756.56;5069927;28;20516;-62
2023/09/28 09:51:59;;;;;;;0.00;0.00;;;;;;;26.58;45.46;101762.59;5069977;28;20128;-61
2023/09/28 09:54:24;;;;;;;0.00;0.00;;;;;;;25.89;47.70;101758.22;5069850;28;20040;-64
2023/09/28 09:56:51;;;;;;;0.00;0.00;;;;;;;25.85;48.10;101752.53;5070421;28;20031;-63
2023/09/28 09:59:19;;;;;;;0.00;0.00;;;;;;;26.54;46.22;101753.31;5069967;28;20036;-61
2023/09/28 10:01:49;;;;;;;0.00;0.00;;;;;;;26.57;46.16;101742.50;5070036;28;20087;-62
2023/09/28 10:04:16;;;;;;;0.00;0.00;;;;;;;27.49;43.90;101748.28;5069677;28;20043;-62
2023/09/28 10:06:56;;;;;;;0.00;0.00;;;;;;;27.37;44.42;101745.28;5069850;28;20039;-61
2023/09/28 10:09:22;;;;;;;0.00;0.00;;;;;;;27.91;43.36;101741.31;5070066;28;20032;-62
2023/09/28 10:11:49;;;;;;;0.00;0.00;;;;;;;28.54;41.63;101740.84;5070180;28;20489;-61
2023/09/28 10:14:21;;;;;;;0.00;0.00;;;;;;;27.53;43.29;101741.00;5069806;28;20033;-62
2023/09/28 10:16:49;;;;;;;0.00;0.00;;;;;;;27.55;43.64;101749.78;5081364;28;20074;-64
2023/09/28 10:19:19;;;;;;;0.00;0.00;;;;;;;28.18;41.94;101748.59;5089908;28;20484;-63
2023/09/28 10:21:45;;;;;;;0.00;0.00;;;;;;;28.43;41.00;101737.59;5089804;28;20047;-61
2023/09/28 10:24:12;;;;;;;0.00;0.00;;;;;;;28.09;41.35;101739.47;5089668;28;20033;-62
2023/09/28 10:26:42;;;;;;;0.00;0.00;;;;;;;27.75;43.01;101745.66;5090564;28;20028;-62
2023/09/28 10:29:09;;;;;;;0.00;0.00;;;;;;;26.78;43.67;101737.34;5089782;28;20073;-63
2023/09/28 10:31:42;;;;;;;0.00;0.00;;;;;;;27.07;43.42;101745.19;5078401;28;20033;-62
2023/09/28 10:34:08;;;;;;;0.00;0.00;;;;;;;27.74;42.45;101750.38;5069406;28;20082;-62
2023/09/28 10:36:37;;;;;;;0.00;0.00;;;;;;;27.90;42.17;101745.22;5069443;28;20047;-63
2023/09/28 10:39:15;;;;;;;0.00;0.00;;;;;;;29.39;39.28;101740.88;5069404;28;20388;-61
2023/09/28 10:41:51;;;;;;;0.00;0.00;;;;;;;30.02;38.32;101742.78;5049960;28;20070;-63
2023/09/28 10:44:18;;;;;;;0.00;0.00;;;;;;;28.06;42.05;101749.22;5060665;28;20083;-61
2023/09/28 10:46:51;;;;;;;0.00;0.00;;;;;;;27.89;42.47;101754.66;5069526;28;20033;-63
2023/09/28 10:49:28;;;;;;;0.00;0.00;;;;;;;27.52;43.33;101755.09;5069115;28;20033;-62
2023/09/28 10:51:56;;;;;;;0.00;0.00;;;;;;;26.70;44.05;101760.13;5069162;28;20113;-61
2023/09/28 10:54:22;;;;;;;0.00;0.00;;;;;;;27.45;43.40;101769.38;5069331;28;20396;-61
2023/09/28 10:56:51;;;;;;;0.00;0.00;;;;;;;27.46;43.26;101772.97;5071192;28;20034;-62
2023/09/28 10:59:20;;;;;;;0.00;0.00;;;;;;;27.28;43.54;101777.50;5072991;28;20028;-62
2023/09/28 11:01:49;;;;;;;0.00;0.00;;;;;;;27.42;42.74;101780.25;5072395;28;20044;-63
2023/09/28 11:04:16;;;;;;;0.00;0.00;;;;;;;27.72;42.49;101780.25;5071912;28;20360;-62
2023/09/28 11:06:44;;;;;;;0.00;0.00;;;;;;;28.35;41.05;101766.06;5071864;28;20113;-63
2023/09/28 11:09:13;;;;;;;0.00;0.00;;;;;;;29.04;39.92;101753.13;5071997;28;20039;-63
2023/09/28 11:11:40;;;;;;;0.00;0.00;;;;;;;28.01;41.73;101765.13;5074045;28;20036;-62
2023/09/28 11:14:06;;;;;;;0.00;0.00;;;;;;;29.13;39.80;101758.66;5092107;28;20127;-63
2023/09/28 11:16:35;;;;;;;0.00;0.00;;;;;;;29.44;38.65;101753.75;5078920;28;20409;-62
2023/09/28 11:19:01;;;;;;;0.00;0.00;;;;;;;28.91;40.41;101756.88;5071647;28;20040;-62
2023/09/28 11:21:28;;;;;;;0.00;0.00;;;;;;;28.37;41.55;101766.53;5071493;28;20043;-63
2023/09/28 11:23:55;;;;;;;0.00;0.00;;;;;;;27.83;41.56;101762.25;5071930;28;20128;-62